This is the latest recevied weather packets stored in our database for station/object K5FEP. If no packets are shown the sender has not sent any weather packets the latest 10 day(s).
| Time | Temp. | Humidity | Pressure | Rain* | Wind** | Luminosity | Snow |
|---|---|---|---|---|---|---|---|
| 1787887905 | 22.78° C | 90% | 1014.9 hPa | 0 mm | - | 0 W/m² | - |
| 1787887600 | 22.78° C | 90% | 1014.8 hPa | 0 mm | - | 0 W/m² | - |
| 1787887296 | 23.33° C | 90% | 1014.8 hPa | 0 mm | - | 0 W/m² | - |
| 1787886990 | 22.78° C | 91% | 1014.7 hPa | 0 mm | - | 0 W/m² | - |
| 1787886690 | 22.78° C | 92% | 1014.7 hPa | 0 mm | - | 0 W/m² | - |
| 1787886385 | 22.78° C | 91% | 1014.6 hPa | 0 mm | - | 0 W/m² | - |
| 1787886081 | 23.33° C | 91% | 1014.7 hPa | 0 mm | - | 0 W/m² | - |
| 1787885780 | 23.33° C | 91% | 1014.7 hPa | 0 mm | - | 0 W/m² | - |
| 1787885478 | 23.33° C | 91% | 1014.7 hPa | 0 mm | - | 0 W/m² | - |
| 1787885173 | 23.33° C | 91% | 1014.7 hPa | 0 mm | - | 0 W/m² | - |
| 1787884873 | 23.33° C | 91% | 1014.7 hPa | 0 mm | - | 0 W/m² | - |
| 1787884573 | 23.33° C | 91% | 1014.6 hPa | 0 mm | - | 0 W/m² | - |
| 1787884269 | 23.89° C | 91% | 1014.8 hPa | 0 mm | - | 0 W/m² | - |
| 1787883964 | 23.89° C | 91% | 1014.7 hPa | 0 mm | - | 0 W/m² | - |
| 1787883664 | 23.89° C | 91% | 1014.6 hPa | 0 mm | - | 0 W/m² | - |
| 1787883361 | 23.89° C | 90% | 1014.4 hPa | 0 mm | - | 0 W/m² | - |
| 1787883059 | 23.89° C | 90% | 1014.6 hPa | 0 mm | - | 0 W/m² | - |
| 1787882755 | 23.89° C | 89% | 1014.6 hPa | 0 mm | - | 0 W/m² | - |
| 1787882451 | 23.89° C | 89% | 1014.5 hPa | 0 mm | - | 0 W/m² | - |
| 1787882147 | 24.44° C | 89% | 1014.7 hPa | 0 mm | - | 0 W/m² | - |
| 1787881847 | 24.44° C | 88% | 1014.5 hPa | 0 mm | - | 0 W/m² | - |
| 1787881542 | 24.44° C | 88% | 1014.5 hPa | 0 mm | - | 0 W/m² | - |
| 1787881238 | 24.44° C | 87% | 1014.5 hPa | 0 mm | - | 0 W/m² | - |
| 1787880934 | 25° C | 87% | 1014.5 hPa | 0 mm | - | 0 W/m² | - |
| 1787880633 | 25° C | 87% | 1014.5 hPa | 0 mm | - | 0 W/m² | - |
* Rain latest hour (hover to see other rain measurements)
** Current wind speed in m/s (hover to see current wind gust speed)